sensor_id;sensor_type;location;lat;lon;timestamp;P1;durP1;ratioP1;P2;durP2;ratioP2
19551;SDS011;9921;47.186;9.778;2023-05-31T00:00:37;0.00;;;0.00;;
19551;SDS011;9921;47.186;9.778;2023-05-31T00:03:04;0.00;;;0.00;;
19551;SDS011;9921;47.186;9.778;2023-05-31T00:05:32;0.00;;;0.00;;
19551;SDS011;9921;47.186;9.778;2023-05-31T00:07:59;0.00;;;0.00;;
19551;SDS011;9921;47.186;9.778;2023-05-31T00:10:26;0.00;;;0.00;;
19551;SDS011;9921;47.186;9.778;2023-05-31T00:12:55;0.00;;;0.00;;
19551;SDS011;9921;47.186;9.778;2023-05-31T00:15:21;0.00;;;0.00;;
19551;SDS011;9921;47.186;9.778;2023-05-31T00:17:48;0.00;;;0.00;;
19551;SDS011;9921;47.186;9.778;2023-05-31T00:20:15;0.00;;;0.00;;
19551;SDS011;9921;47.186;9.778;2023-05-31T00:22:42;0.00;;;0.00;;
19551;SDS011;9921;47.186;9.778;2023-05-31T00:25:09;0.00;;;0.00;;
19551;SDS011;9921;47.186;9.778;2023-05-31T00:27:36;0.00;;;0.00;;
19551;SDS011;9921;47.186;9.778;2023-05-31T00:30:05;0.00;;;0.00;;
19551;SDS011;9921;47.186;9.778;2023-05-31T00:32:32;0.00;;;0.00;;
19551;SDS011;9921;47.186;9.778;2023-05-31T00:34:59;0.00;;;0.00;;
19551;SDS011;9921;47.186;9.778;2023-05-31T00:37:26;0.00;;;0.00;;
19551;SDS011;9921;47.186;9.778;2023-05-31T00:39:53;0.00;;;0.00;;
19551;SDS011;9921;47.186;9.778;2023-05-31T00:42:20;0.00;;;0.00;;
19551;SDS011;9921;47.186;9.778;2023-05-31T00:44:47;0.00;;;0.00;;
19551;SDS011;9921;47.186;9.778;2023-05-31T00:47:15;0.00;;;0.00;;
19551;SDS011;9921;47.186;9.778;2023-05-31T00:49:42;0.00;;;0.00;;
19551;SDS011;9921;47.186;9.778;2023-05-31T00:52:09;0.00;;;0.00;;
19551;SDS011;9921;47.186;9.778;2023-05-31T00:54:36;0.00;;;0.00;;
19551;SDS011;9921;47.186;9.778;2023-05-31T00:57:03;0.00;;;0.00;;
19551;SDS011;9921;47.186;9.778;2023-05-31T00:59:31;0.00;;;0.00;;
19551;SDS011;9921;47.186;9.778;2023-05-31T01:01:58;0.00;;;0.00;;
19551;SDS011;9921;47.186;9.778;2023-05-31T01:04:30;0.00;;;0.00;;
19551;SDS011;9921;47.186;9.778;2023-05-31T01:06:57;0.00;;;0.00;;
19551;SDS011;9921;47.186;9.778;2023-05-31T01:09:25;0.00;;;0.00;;
19551;SDS011;9921;47.186;9.778;2023-05-31T01:11:56;0.00;;;0.00;;
19551;SDS011;9921;47.186;9.778;2023-05-31T01:14:30;0.00;;;0.00;;
19551;SDS011;9921;47.186;9.778;2023-05-31T01:17:05;0.00;;;0.00;;
19551;SDS011;9921;47.186;9.778;2023-05-31T01:19:42;0.00;;;0.00;;
19551;SDS011;9921;47.186;9.778;2023-05-31T01:22:13;0.00;;;0.00;;
19551;SDS011;9921;47.186;9.778;2023-05-31T01:24:59;0.00;;;0.00;;
19551;SDS011;9921;47.186;9.778;2023-05-31T01:27:40;0.00;;;0.00;;
19551;SDS011;9921;47.186;9.778;2023-05-31T01:30:09;0.00;;;0.00;;
19551;SDS011;9921;47.186;9.778;2023-05-31T01:32:38;0.00;;;0.00;;
19551;SDS011;9921;47.186;9.778;2023-05-31T01:35:06;0.00;;;0.00;;
19551;SDS011;9921;47.186;9.778;2023-05-31T01:37:33;0.00;;;0.00;;
19551;SDS011;9921;47.186;9.778;2023-05-31T01:40:00;0.00;;;0.00;;
19551;SDS011;9921;47.186;9.778;2023-05-31T01:42:28;0.00;;;0.00;;
19551;SDS011;9921;47.186;9.778;2023-05-31T01:44:58;0.00;;;0.00;;
19551;SDS011;9921;47.186;9.778;2023-05-31T01:47:25;0.00;;;0.00;;
19551;SDS011;9921;47.186;9.778;2023-05-31T01:49:53;0.00;;;0.00;;
19551;SDS011;9921;47.186;9.778;2023-05-31T01:52:20;0.00;;;0.00;;
19551;SDS011;9921;47.186;9.778;2023-05-31T01:54:47;0.00;;;0.00;;
19551;SDS011;9921;47.186;9.778;2023-05-31T01:57:14;0.00;;;0.00;;
19551;SDS011;9921;47.186;9.778;2023-05-31T01:59:43;0.00;;;0.00;;
19551;SDS011;9921;47.186;9.778;2023-05-31T02:02:12;0.00;;;0.00;;
19551;SDS011;9921;47.186;9.778;2023-05-31T02:04:39;0.00;;;0.00;;
19551;SDS011;9921;47.186;9.778;2023-05-31T02:07:06;0.00;;;0.00;;
19551;SDS011;9921;47.186;9.778;2023-05-31T02:09:34;0.00;;;0.00;;
19551;SDS011;9921;47.186;9.778;2023-05-31T02:12:01;0.00;;;0.00;;
19551;SDS011;9921;47.186;9.778;2023-05-31T02:14:29;0.00;;;0.00;;
19551;SDS011;9921;47.186;9.778;2023-05-31T02:16:56;0.00;;;0.00;;
19551;SDS011;9921;47.186;9.778;2023-05-31T02:19:24;0.00;;;0.00;;
19551;SDS011;9921;47.186;9.778;2023-05-31T02:21:51;0.00;;;0.00;;
19551;SDS011;9921;47.186;9.778;2023-05-31T02:24:18;0.00;;;0.00;;
19551;SDS011;9921;47.186;9.778;2023-05-31T02:26:45;0.00;;;0.00;;
19551;SDS011;9921;47.186;9.778;2023-05-31T02:29:12;0.00;;;0.00;;
19551;SDS011;9921;47.186;9.778;2023-05-31T02:31:39;0.00;;;0.00;;
19551;SDS011;9921;47.186;9.778;2023-05-31T02:34:06;0.00;;;0.00;;
19551;SDS011;9921;47.186;9.778;2023-05-31T02:36:34;0.00;;;0.00;;
19551;SDS011;9921;47.186;9.778;2023-05-31T02:39:01;0.00;;;0.00;;
19551;SDS011;9921;47.186;9.778;2023-05-31T02:41:28;0.00;;;0.00;;
19551;SDS011;9921;47.186;9.778;2023-05-31T02:43:55;0.00;;;0.00;;
19551;SDS011;9921;47.186;9.778;2023-05-31T02:46:22;0.00;;;0.00;;
19551;SDS011;9921;47.186;9.778;2023-05-31T02:48:49;0.00;;;0.00;;
19551;SDS011;9921;47.186;9.778;2023-05-31T02:51:16;0.00;;;0.00;;
19551;SDS011;9921;47.186;9.778;2023-05-31T02:53:44;0.00;;;0.00;;
19551;SDS011;9921;47.186;9.778;2023-05-31T02:56:11;0.00;;;0.00;;
19551;SDS011;9921;47.186;9.778;2023-05-31T02:58:37;0.00;;;0.00;;
19551;SDS011;9921;47.186;9.778;2023-05-31T03:01:05;0.00;;;0.00;;
19551;SDS011;9921;47.186;9.778;2023-05-31T03:03:33;0.00;;;0.00;;
19551;SDS011;9921;47.186;9.778;2023-05-31T03:05:59;0.00;;;0.00;;
19551;SDS011;9921;47.186;9.778;2023-05-31T03:08:26;0.00;;;0.00;;
19551;SDS011;9921;47.186;9.778;2023-05-31T03:10:55;0.00;;;0.00;;
19551;SDS011;9921;47.186;9.778;2023-05-31T03:13:22;0.00;;;0.00;;
19551;SDS011;9921;47.186;9.778;2023-05-31T03:15:49;0.00;;;0.00;;
19551;SDS011;9921;47.186;9.778;2023-05-31T03:18:16;0.00;;;0.00;;
19551;SDS011;9921;47.186;9.778;2023-05-31T03:20:43;0.00;;;0.00;;
19551;SDS011;9921;47.186;9.778;2023-05-31T03:23:10;0.00;;;0.00;;
19551;SDS011;9921;47.186;9.778;2023-05-31T03:25:37;0.00;;;0.00;;
19551;SDS011;9921;47.186;9.778;2023-05-31T03:28:05;0.00;;;0.00;;
19551;SDS011;9921;47.186;9.778;2023-05-31T03:30:32;0.00;;;0.00;;
19551;SDS011;9921;47.186;9.778;2023-05-31T03:32:59;0.00;;;0.00;;
19551;SDS011;9921;47.186;9.778;2023-05-31T03:35:27;0.00;;;0.00;;
19551;SDS011;9921;47.186;9.778;2023-05-31T03:37:54;0.00;;;0.00;;
19551;SDS011;9921;47.186;9.778;2023-05-31T03:40:21;0.00;;;0.00;;
19551;SDS011;9921;47.186;9.778;2023-05-31T03:42:48;0.00;;;0.00;;
19551;SDS011;9921;47.186;9.778;2023-05-31T03:45:16;0.00;;;0.00;;
19551;SDS011;9921;47.186;9.778;2023-05-31T03:47:43;0.00;;;0.00;;
19551;SDS011;9921;47.186;9.778;2023-05-31T03:50:10;0.00;;;0.00;;
19551;SDS011;9921;47.186;9.778;2023-05-31T03:52:37;0.00;;;0.00;;
19551;SDS011;9921;47.186;9.778;2023-05-31T03:55:05;0.00;;;0.00;;
19551;SDS011;9921;47.186;9.778;2023-05-31T03:57:32;0.00;;;0.00;;
19551;SDS011;9921;47.186;9.778;2023-05-31T04:00:00;0.00;;;0.00;;
19551;SDS011;9921;47.186;9.778;2023-05-31T04:02:28;0.00;;;0.00;;
19551;SDS011;9921;47.186;9.778;2023-05-31T04:04:55;0.00;;;0.00;;
19551;SDS011;9921;47.186;9.778;2023-05-31T04:07:22;0.00;;;0.00;;
19551;SDS011;9921;47.186;9.778;2023-05-31T04:09:49;0.00;;;0.00;;
19551;SDS011;9921;47.186;9.778;2023-05-31T04:12:16;0.00;;;0.00;;
19551;SDS011;9921;47.186;9.778;2023-05-31T04:14:42;0.00;;;0.00;;
19551;SDS011;9921;47.186;9.778;2023-05-31T04:17:09;0.00;;;0.00;;
19551;SDS011;9921;47.186;9.778;2023-05-31T04:19:37;0.00;;;0.00;;
19551;SDS011;9921;47.186;9.778;2023-05-31T04:22:04;0.00;;;0.00;;
19551;SDS011;9921;47.186;9.778;2023-05-31T04:24:31;0.00;;;0.00;;
19551;SDS011;9921;47.186;9.778;2023-05-31T04:26:58;0.00;;;0.00;;
19551;SDS011;9921;47.186;9.778;2023-05-31T04:29:28;0.00;;;0.00;;
19551;SDS011;9921;47.186;9.778;2023-05-31T04:31:54;0.00;;;0.00;;
19551;SDS011;9921;47.186;9.778;2023-05-31T04:34:22;0.00;;;0.00;;
19551;SDS011;9921;47.186;9.778;2023-05-31T04:36:50;0.00;;;0.00;;
19551;SDS011;9921;47.186;9.778;2023-05-31T04:39:17;0.00;;;0.00;;
19551;SDS011;9921;47.186;9.778;2023-05-31T04:41:47;0.00;;;0.00;;
19551;SDS011;9921;47.186;9.778;2023-05-31T04:44:14;0.00;;;0.00;;
19551;SDS011;9921;47.186;9.778;2023-05-31T04:46:40;0.00;;;0.00;;
19551;SDS011;9921;47.186;9.778;2023-05-31T04:49:07;0.00;;;0.00;;
19551;SDS011;9921;47.186;9.778;2023-05-31T04:51:34;0.00;;;0.00;;
19551;SDS011;9921;47.186;9.778;2023-05-31T04:54:03;0.00;;;0.00;;
19551;SDS011;9921;47.186;9.778;2023-05-31T04:56:31;0.00;;;0.00;;
19551;SDS011;9921;47.186;9.778;2023-05-31T04:58:58;0.00;;;0.00;;
19551;SDS011;9921;47.186;9.778;2023-05-31T05:01:24;0.00;;;0.00;;
19551;SDS011;9921;47.186;9.778;2023-05-31T05:03:51;0.00;;;0.00;;
19551;SDS011;9921;47.186;9.778;2023-05-31T05:06:18;0.00;;;0.00;;
19551;SDS011;9921;47.186;9.778;2023-05-31T05:08:45;0.00;;;0.00;;
19551;SDS011;9921;47.186;9.778;2023-05-31T05:11:14;0.00;;;0.00;;
19551;SDS011;9921;47.186;9.778;2023-05-31T05:13:41;0.00;;;0.00;;
19551;SDS011;9921;47.186;9.778;2023-05-31T05:16:09;0.00;;;0.00;;
19551;SDS011;9921;47.186;9.778;2023-05-31T05:18:36;0.00;;;0.00;;
19551;SDS011;9921;47.186;9.778;2023-05-31T05:21:04;0.00;;;0.00;;
19551;SDS011;9921;47.186;9.778;2023-05-31T05:23:31;0.00;;;0.00;;
19551;SDS011;9921;47.186;9.778;2023-05-31T05:25:58;0.00;;;0.00;;
19551;SDS011;9921;47.186;9.778;2023-05-31T05:28:26;0.00;;;0.00;;
19551;SDS011;9921;47.186;9.778;2023-05-31T05:30:54;0.00;;;0.00;;
19551;SDS011;9921;47.186;9.778;2023-05-31T05:33:20;0.00;;;0.00;;
19551;SDS011;9921;47.186;9.778;2023-05-31T05:35:47;0.00;;;0.00;;
19551;SDS011;9921;47.186;9.778;2023-05-31T05:38:14;0.00;;;0.00;;
19551;SDS011;9921;47.186;9.778;2023-05-31T05:40:41;0.00;;;0.00;;
19551;SDS011;9921;47.186;9.778;2023-05-31T05:43:08;0.00;;;0.00;;
19551;SDS011;9921;47.186;9.778;2023-05-31T05:45:37;0.00;;;0.00;;
19551;SDS011;9921;47.186;9.778;2023-05-31T05:48:04;0.00;;;0.00;;
19551;SDS011;9921;47.186;9.778;2023-05-31T05:50:31;0.00;;;0.00;;
19551;SDS011;9921;47.186;9.778;2023-05-31T05:52:58;0.00;;;0.00;;
19551;SDS011;9921;47.186;9.778;2023-05-31T05:55:25;0.00;;;0.00;;
19551;SDS011;9921;47.186;9.778;2023-05-31T05:57:52;0.00;;;0.00;;
19551;SDS011;9921;47.186;9.778;2023-05-31T06:00:19;0.00;;;0.00;;
19551;SDS011;9921;47.186;9.778;2023-05-31T06:02:47;0.00;;;0.00;;
19551;SDS011;9921;47.186;9.778;2023-05-31T06:05:14;0.00;;;0.00;;
19551;SDS011;9921;47.186;9.778;2023-05-31T06:07:41;0.00;;;0.00;;
19551;SDS011;9921;47.186;9.778;2023-05-31T06:10:09;0.00;;;0.00;;
19551;SDS011;9921;47.186;9.778;2023-05-31T06:12:36;0.00;;;0.00;;
19551;SDS011;9921;47.186;9.778;2023-05-31T06:15:03;0.00;;;0.00;;
19551;SDS011;9921;47.186;9.778;2023-05-31T06:17:31;0.00;;;0.00;;
19551;SDS011;9921;47.186;9.778;2023-05-31T06:19:59;0.00;;;0.00;;
19551;SDS011;9921;47.186;9.778;2023-05-31T06:22:27;0.00;;;0.00;;
19551;SDS011;9921;47.186;9.778;2023-05-31T06:24:56;0.00;;;0.00;;
19551;SDS011;9921;47.186;9.778;2023-05-31T06:27:24;0.00;;;0.00;;
19551;SDS011;9921;47.186;9.778;2023-05-31T06:29:51;0.00;;;0.00;;
19551;SDS011;9921;47.186;9.778;2023-05-31T06:32:22;0.00;;;0.00;;
19551;SDS011;9921;47.186;9.778;2023-05-31T06:34:49;0.00;;;0.00;;
19551;SDS011;9921;47.186;9.778;2023-05-31T06:37:18;0.00;;;0.00;;
19551;SDS011;9921;47.186;9.778;2023-05-31T06:39:45;0.00;;;0.00;;
19551;SDS011;9921;47.186;9.778;2023-05-31T06:42:12;0.00;;;0.00;;
19551;SDS011;9921;47.186;9.778;2023-05-31T06:44:39;0.00;;;0.00;;
19551;SDS011;9921;47.186;9.778;2023-05-31T06:47:06;0.00;;;0.00;;
19551;SDS011;9921;47.186;9.778;2023-05-31T06:49:33;0.00;;;0.00;;
19551;SDS011;9921;47.186;9.778;2023-05-31T06:52:00;0.00;;;0.00;;
19551;SDS011;9921;47.186;9.778;2023-05-31T06:54:29;0.00;;;0.00;;
19551;SDS011;9921;47.186;9.778;2023-05-31T06:56:57;0.00;;;0.00;;
19551;SDS011;9921;47.186;9.778;2023-05-31T06:59:24;0.00;;;0.00;;
19551;SDS011;9921;47.186;9.778;2023-05-31T07:01:50;0.00;;;0.00;;
19551;SDS011;9921;47.186;9.778;2023-05-31T07:04:19;0.00;;;0.00;;
19551;SDS011;9921;47.186;9.778;2023-05-31T07:06:46;0.00;;;0.00;;
19551;SDS011;9921;47.186;9.778;2023-05-31T07:09:13;0.00;;;0.00;;
19551;SDS011;9921;47.186;9.778;2023-05-31T07:11:42;0.00;;;0.00;;
19551;SDS011;9921;47.186;9.778;2023-05-31T07:14:09;0.00;;;0.00;;
19551;SDS011;9921;47.186;9.778;2023-05-31T07:16:36;0.00;;;0.00;;
19551;SDS011;9921;47.186;9.778;2023-05-31T07:19:03;0.00;;;0.00;;
19551;SDS011;9921;47.186;9.778;2023-05-31T07:21:30;0.00;;;0.00;;
19551;SDS011;9921;47.186;9.778;2023-05-31T07:23:57;0.00;;;0.00;;
19551;SDS011;9921;47.186;9.778;2023-05-31T07:26:24;0.00;;;0.00;;
19551;SDS011;9921;47.186;9.778;2023-05-31T07:28:52;0.00;;;0.00;;
19551;SDS011;9921;47.186;9.778;2023-05-31T07:31:19;0.00;;;0.00;;
19551;SDS011;9921;47.186;9.778;2023-05-31T07:33:46;0.00;;;0.00;;
19551;SDS011;9921;47.186;9.778;2023-05-31T07:36:13;0.00;;;0.00;;
19551;SDS011;9921;47.186;9.778;2023-05-31T07:38:40;0.00;;;0.00;;
19551;SDS011;9921;47.186;9.778;2023-05-31T07:41:07;0.00;;;0.00;;
19551;SDS011;9921;47.186;9.778;2023-05-31T07:43:34;0.00;;;0.00;;
19551;SDS011;9921;47.186;9.778;2023-05-31T07:46:03;0.00;;;0.00;;
19551;SDS011;9921;47.186;9.778;2023-05-31T07:48:30;0.00;;;0.00;;
19551;SDS011;9921;47.186;9.778;2023-05-31T07:50:58;0.00;;;0.00;;
19551;SDS011;9921;47.186;9.778;2023-05-31T07:53:25;0.00;;;0.00;;
19551;SDS011;9921;47.186;9.778;2023-05-31T07:55:52;0.00;;;0.00;;
19551;SDS011;9921;47.186;9.778;2023-05-31T07:58:19;0.00;;;0.00;;
19551;SDS011;9921;47.186;9.778;2023-05-31T08:00:45;0.00;;;0.00;;
19551;SDS011;9921;47.186;9.778;2023-05-31T08:03:14;0.00;;;0.00;;
19551;SDS011;9921;47.186;9.778;2023-05-31T08:05:41;0.00;;;0.00;;
19551;SDS011;9921;47.186;9.778;2023-05-31T08:08:07;0.00;;;0.00;;
19551;SDS011;9921;47.186;9.778;2023-05-31T08:10:34;0.00;;;0.00;;
19551;SDS011;9921;47.186;9.778;2023-05-31T08:13:01;0.00;;;0.00;;
19551;SDS011;9921;47.186;9.778;2023-05-31T08:15:29;0.00;;;0.00;;
19551;SDS011;9921;47.186;9.778;2023-05-31T08:17:55;0.00;;;0.00;;
19551;SDS011;9921;47.186;9.778;2023-05-31T08:20:25;0.00;;;0.00;;
19551;SDS011;9921;47.186;9.778;2023-05-31T08:22:52;0.00;;;0.00;;
19551;SDS011;9921;47.186;9.778;2023-05-31T08:25:19;0.00;;;0.00;;
19551;SDS011;9921;47.186;9.778;2023-05-31T08:27:47;0.00;;;0.00;;
19551;SDS011;9921;47.186;9.778;2023-05-31T08:30:15;0.00;;;0.00;;
19551;SDS011;9921;47.186;9.778;2023-05-31T08:32:42;0.00;;;0.00;;
19551;SDS011;9921;47.186;9.778;2023-05-31T08:35:09;0.00;;;0.00;;
19551;SDS011;9921;47.186;9.778;2023-05-31T08:37:38;0.00;;;0.00;;
19551;SDS011;9921;47.186;9.778;2023-05-31T08:40:06;0.00;;;0.00;;
19551;SDS011;9921;47.186;9.778;2023-05-31T08:42:37;0.00;;;0.00;;
19551;SDS011;9921;47.186;9.778;2023-05-31T08:45:07;0.10;;;0.10;;
19551;SDS011;9921;47.186;9.778;2023-05-31T08:47:38;0.00;;;0.00;;
19551;SDS011;9921;47.186;9.778;2023-05-31T08:50:09;0.00;;;0.00;;
19551;SDS011;9921;47.186;9.778;2023-05-31T08:52:36;0.00;;;0.00;;
19551;SDS011;9921;47.186;9.778;2023-05-31T08:55:06;0.00;;;0.00;;
19551;SDS011;9921;47.186;9.778;2023-05-31T08:57:34;0.00;;;0.00;;
19551;SDS011;9921;47.186;9.778;2023-05-31T09:00:02;0.00;;;0.00;;
19551;SDS011;9921;47.186;9.778;2023-05-31T09:02:36;0.10;;;0.10;;
19551;SDS011;9921;47.186;9.778;2023-05-31T09:05:03;0.00;;;0.00;;
19551;SDS011;9921;47.186;9.778;2023-05-31T09:07:31;0.10;;;0.10;;
19551;SDS011;9921;47.186;9.778;2023-05-31T09:09:59;0.00;;;0.00;;
19551;SDS011;9921;47.186;9.778;2023-05-31T09:12:28;0.00;;;0.00;;
19551;SDS011;9921;47.186;9.778;2023-05-31T09:14:55;0.05;;;0.05;;
19551;SDS011;9921;47.186;9.778;2023-05-31T09:17:23;0.00;;;0.00;;
19551;SDS011;9921;47.186;9.778;2023-05-31T09:19:51;0.10;;;0.10;;
19551;SDS011;9921;47.186;9.778;2023-05-31T09:22:20;0.03;;;0.03;;
19551;SDS011;9921;47.186;9.778;2023-05-31T09:24:50;0.10;;;0.10;;
19551;SDS011;9921;47.186;9.778;2023-05-31T09:27:22;0.00;;;0.00;;
19551;SDS011;9921;47.186;9.778;2023-05-31T09:29:52;0.10;;;0.10;;
19551;SDS011;9921;47.186;9.778;2023-05-31T09:32:20;0.10;;;0.10;;
19551;SDS011;9921;47.186;9.778;2023-05-31T09:34:47;0.10;;;0.10;;
19551;SDS011;9921;47.186;9.778;2023-05-31T09:37:20;0.10;;;0.10;;
19551;SDS011;9921;47.186;9.778;2023-05-31T09:39:54;0.10;;;0.10;;
19551;SDS011;9921;47.186;9.778;2023-05-31T09:42:24;0.10;;;0.10;;
19551;SDS011;9921;47.186;9.778;2023-05-31T09:44:52;0.10;;;0.10;;
19551;SDS011;9921;47.186;9.778;2023-05-31T09:47:22;0.10;;;0.10;;
19551;SDS011;9921;47.186;9.778;2023-05-31T09:49:52;0.10;;;0.10;;
19551;SDS011;9921;47.186;9.778;2023-05-31T09:52:21;0.10;;;0.10;;
19551;SDS011;9921;47.186;9.778;2023-05-31T09:54:54;0.10;;;0.10;;
19551;SDS011;9921;47.186;9.778;2023-05-31T09:57:29;0.10;;;0.10;;
19551;SDS011;9921;47.186;9.778;2023-05-31T09:59:57;0.13;;;0.13;;
19551;SDS011;9921;47.186;9.778;2023-05-31T10:02:25;0.10;;;0.10;;
19551;SDS011;9921;47.186;9.778;2023-05-31T10:04:53;0.10;;;0.10;;
19551;SDS011;9921;47.186;9.778;2023-05-31T10:07:21;0.10;;;0.10;;
19551;SDS011;9921;47.186;9.778;2023-05-31T10:09:49;0.10;;;0.10;;
19551;SDS011;9921;47.186;9.778;2023-05-31T10:12:16;0.10;;;0.10;;
19551;SDS011;9921;47.186;9.778;2023-05-31T10:14:47;0.10;;;0.10;;
19551;SDS011;9921;47.186;9.778;2023-05-31T10:17:18;0.10;;;0.10;;
19551;SDS011;9921;47.186;9.778;2023-05-31T10:19:50;0.20;;;0.20;;
19551;SDS011;9921;47.186;9.778;2023-05-31T10:22:22;0.10;;;0.10;;
19551;SDS011;9921;47.186;9.778;2023-05-31T10:24:56;0.10;;;0.10;;
19551;SDS011;9921;47.186;9.778;2023-05-31T10:27:29;0.10;;;0.10;;
19551;SDS011;9921;47.186;9.778;2023-05-31T10:30:04;0.10;;;0.10;;
19551;SDS011;9921;47.186;9.778;2023-05-31T10:32:32;0.10;;;0.10;;
19551;SDS011;9921;47.186;9.778;2023-05-31T10:35:00;0.10;;;0.10;;
19551;SDS011;9921;47.186;9.778;2023-05-31T10:37:28;0.20;;;0.20;;
19551;SDS011;9921;47.186;9.778;2023-05-31T10:39:59;0.10;;;0.10;;
19551;SDS011;9921;47.186;9.778;2023-05-31T10:42:36;0.10;;;0.10;;
19551;SDS011;9921;47.186;9.778;2023-05-31T10:45:12;0.10;;;0.10;;
19551;SDS011;9921;47.186;9.778;2023-05-31T10:47:42;0.10;;;0.10;;
19551;SDS011;9921;47.186;9.778;2023-05-31T10:50:19;0.10;;;0.10;;
19551;SDS011;9921;47.186;9.778;2023-05-31T10:52:47;0.20;;;0.20;;
19551;SDS011;9921;47.186;9.778;2023-05-31T10:55:15;0.20;;;0.20;;
19551;SDS011;9921;47.186;9.778;2023-05-31T10:57:43;0.15;;;0.15;;
19551;SDS011;9921;47.186;9.778;2023-05-31T11:00:12;0.10;;;0.10;;
19551;SDS011;9921;47.186;9.778;2023-05-31T11:02:45;0.20;;;0.20;;
19551;SDS011;9921;47.186;9.778;2023-05-31T11:05:18;0.10;;;0.10;;
19551;SDS011;9921;47.186;9.778;2023-05-31T11:07:47;0.10;;;0.10;;
19551;SDS011;9921;47.186;9.778;2023-05-31T11:10:23;0.17;;;0.17;;
19551;SDS011;9921;47.186;9.778;2023-05-31T11:12:51;0.20;;;0.20;;
19551;SDS011;9921;47.186;9.778;2023-05-31T11:15:25;0.15;;;0.15;;
19551;SDS011;9921;47.186;9.778;2023-05-31T11:18:06;0.10;;;0.10;;
19551;SDS011;9921;47.186;9.778;2023-05-31T11:20:34;0.10;;;0.10;;
19551;SDS011;9921;47.186;9.778;2023-05-31T11:28:54;0.10;;;0.10;;
19551;SDS011;9921;47.186;9.778;2023-05-31T11:34:27;0.10;;;0.10;;
19551;SDS011;9921;47.186;9.778;2023-05-31T11:36:56;0.20;;;0.20;;
19551;SDS011;9921;47.186;9.778;2023-05-31T11:39:25;0.10;;;0.10;;
19551;SDS011;9921;47.186;9.778;2023-05-31T11:41:52;0.10;;;0.10;;
19551;SDS011;9921;47.186;9.778;2023-05-31T11:44:20;0.10;;;0.10;;
19551;SDS011;9921;47.186;9.778;2023-05-31T11:46:55;0.10;;;0.10;;
19551;SDS011;9921;47.186;9.778;2023-05-31T11:49:27;0.20;;;0.20;;
19551;SDS011;9921;47.186;9.778;2023-05-31T11:51:56;0.20;;;0.20;;
19551;SDS011;9921;47.186;9.778;2023-05-31T11:54:24;0.10;;;0.10;;
19551;SDS011;9921;47.186;9.778;2023-05-31T11:56:57;0.20;;;0.20;;
19551;SDS011;9921;47.186;9.778;2023-05-31T11:59:27;0.15;;;0.15;;
19551;SDS011;9921;47.186;9.778;2023-05-31T12:01:57;0.10;;;0.10;;
19551;SDS011;9921;47.186;9.778;2023-05-31T12:04:42;0.10;;;0.10;;
19551;SDS011;9921;47.186;9.778;2023-05-31T12:07:10;0.10;;;0.10;;
19551;SDS011;9921;47.186;9.778;2023-05-31T12:09:38;0.17;;;0.17;;
19551;SDS011;9921;47.186;9.778;2023-05-31T12:12:05;0.10;;;0.10;;
19551;SDS011;9921;47.186;9.778;2023-05-31T12:14:33;0.15;;;0.15;;
19551;SDS011;9921;47.186;9.778;2023-05-31T12:17:00;0.10;;;0.10;;
19551;SDS011;9921;47.186;9.778;2023-05-31T12:19:28;0.10;;;0.10;;
19551;SDS011;9921;47.186;9.778;2023-05-31T12:21:57;0.10;;;0.10;;
19551;SDS011;9921;47.186;9.778;2023-05-31T12:24:24;0.10;;;0.10;;
19551;SDS011;9921;47.186;9.778;2023-05-31T12:26:51;0.10;;;0.10;;
19551;SDS011;9921;47.186;9.778;2023-05-31T12:29:22;0.15;;;0.15;;
19551;SDS011;9921;47.186;9.778;2023-05-31T12:31:59;0.10;;;0.10;;
19551;SDS011;9921;47.186;9.778;2023-05-31T12:34:27;0.10;;;0.10;;
19551;SDS011;9921;47.186;9.778;2023-05-31T12:36:57;0.10;;;0.10;;
19551;SDS011;9921;47.186;9.778;2023-05-31T12:39:24;0.10;;;0.10;;
19551;SDS011;9921;47.186;9.778;2023-05-31T12:41:51;0.10;;;0.10;;
19551;SDS011;9921;47.186;9.778;2023-05-31T12:44:19;0.10;;;0.10;;
19551;SDS011;9921;47.186;9.778;2023-05-31T12:46:47;0.10;;;0.10;;
19551;SDS011;9921;47.186;9.778;2023-05-31T12:49:18;0.10;;;0.10;;
19551;SDS011;9921;47.186;9.778;2023-05-31T12:51:46;0.10;;;0.10;;
19551;SDS011;9921;47.186;9.778;2023-05-31T12:54:15;0.10;;;0.10;;
19551;SDS011;9921;47.186;9.778;2023-05-31T12:56:42;0.10;;;0.10;;
19551;SDS011;9921;47.186;9.778;2023-05-31T12:59:10;0.10;;;0.10;;
19551;SDS011;9921;47.186;9.778;2023-05-31T13:01:36;0.10;;;0.10;;
19551;SDS011;9921;47.186;9.778;2023-05-31T13:04:05;0.10;;;0.10;;
19551;SDS011;9921;47.186;9.778;2023-05-31T13:06:32;0.10;;;0.10;;
19551;SDS011;9921;47.186;9.778;2023-05-31T13:09:00;0.10;;;0.10;;
19551;SDS011;9921;47.186;9.778;2023-05-31T13:11:31;0.10;;;0.10;;
19551;SDS011;9921;47.186;9.778;2023-05-31T13:13:58;0.15;;;0.15;;
19551;SDS011;9921;47.186;9.778;2023-05-31T13:16:26;0.20;;;0.20;;
19551;SDS011;9921;47.186;9.778;2023-05-31T13:18:54;0.10;;;0.10;;
19551;SDS011;9921;47.186;9.778;2023-05-31T13:21:21;0.10;;;0.10;;
19551;SDS011;9921;47.186;9.778;2023-05-31T13:23:48;0.10;;;0.10;;
19551;SDS011;9921;47.186;9.778;2023-05-31T13:26:15;0.10;;;0.10;;
19551;SDS011;9921;47.186;9.778;2023-05-31T13:28:44;0.10;;;0.10;;
19551;SDS011;9921;47.186;9.778;2023-05-31T13:31:11;0.10;;;0.10;;
19551;SDS011;9921;47.186;9.778;2023-05-31T13:33:38;0.20;;;0.20;;
19551;SDS011;9921;47.186;9.778;2023-05-31T13:36:04;0.10;;;0.10;;
19551;SDS011;9921;47.186;9.778;2023-05-31T13:38:32;0.10;;;0.10;;
19551;SDS011;9921;47.186;9.778;2023-05-31T13:40:59;0.10;;;0.10;;
19551;SDS011;9921;47.186;9.778;2023-05-31T13:43:26;0.10;;;0.10;;
19551;SDS011;9921;47.186;9.778;2023-05-31T13:45:55;0.10;;;0.10;;
19551;SDS011;9921;47.186;9.778;2023-05-31T13:48:24;0.10;;;0.10;;
19551;SDS011;9921;47.186;9.778;2023-05-31T13:50:50;0.10;;;0.10;;
19551;SDS011;9921;47.186;9.778;2023-05-31T13:53:17;0.10;;;0.10;;
19551;SDS011;9921;47.186;9.778;2023-05-31T13:55:44;0.10;;;0.10;;
19551;SDS011;9921;47.186;9.778;2023-05-31T13:58:12;0.10;;;0.10;;
19551;SDS011;9921;47.186;9.778;2023-05-31T14:00:39;0.13;;;0.13;;
19551;SDS011;9921;47.186;9.778;2023-05-31T14:03:08;0.10;;;0.10;;
19551;SDS011;9921;47.186;9.778;2023-05-31T14:05:34;0.10;;;0.10;;
19551;SDS011;9921;47.186;9.778;2023-05-31T14:08:01;0.10;;;0.10;;
19551;SDS011;9921;47.186;9.778;2023-05-31T14:10:28;0.10;;;0.10;;
19551;SDS011;9921;47.186;9.778;2023-05-31T14:12:55;0.13;;;0.13;;
19551;SDS011;9921;47.186;9.778;2023-05-31T14:15:22;0.20;;;0.20;;
19551;SDS011;9921;47.186;9.778;2023-05-31T14:17:49;0.10;;;0.10;;
19551;SDS011;9921;47.186;9.778;2023-05-31T14:20:17;0.10;;;0.10;;
19551;SDS011;9921;47.186;9.778;2023-05-31T14:22:44;0.10;;;0.10;;
19551;SDS011;9921;47.186;9.778;2023-05-31T14:25:11;0.10;;;0.10;;
19551;SDS011;9921;47.186;9.778;2023-05-31T14:27:38;0.10;;;0.10;;
19551;SDS011;9921;47.186;9.778;2023-05-31T14:30:05;0.10;;;0.10;;
19551;SDS011;9921;47.186;9.778;2023-05-31T14:32:32;0.10;;;0.10;;
19551;SDS011;9921;47.186;9.778;2023-05-31T14:35:00;0.10;;;0.10;;
19551;SDS011;9921;47.186;9.778;2023-05-31T14:37:29;0.10;;;0.10;;
19551;SDS011;9921;47.186;9.778;2023-05-31T14:39:56;0.10;;;0.10;;
19551;SDS011;9921;47.186;9.778;2023-05-31T14:42:23;0.10;;;0.10;;
19551;SDS011;9921;47.186;9.778;2023-05-31T14:44:50;0.10;;;0.10;;
19551;SDS011;9921;47.186;9.778;2023-05-31T14:47:16;0.10;;;0.10;;
19551;SDS011;9921;47.186;9.778;2023-05-31T14:49:43;0.10;;;0.10;;
19551;SDS011;9921;47.186;9.778;2023-05-31T14:52:10;0.10;;;0.10;;
19551;SDS011;9921;47.186;9.778;2023-05-31T14:54:38;0.08;;;0.08;;
19551;SDS011;9921;47.186;9.778;2023-05-31T14:57:05;0.10;;;0.10;;
19551;SDS011;9921;47.186;9.778;2023-05-31T14:59:32;0.10;;;0.10;;
19551;SDS011;9921;47.186;9.778;2023-05-31T15:02:00;0.10;;;0.10;;
19551;SDS011;9921;47.186;9.778;2023-05-31T15:04:27;0.10;;;0.10;;
19551;SDS011;9921;47.186;9.778;2023-05-31T15:06:54;0.10;;;0.10;;
19551;SDS011;9921;47.186;9.778;2023-05-31T15:09:21;0.10;;;0.10;;
19551;SDS011;9921;47.186;9.778;2023-05-31T15:11:49;0.10;;;0.10;;
19551;SDS011;9921;47.186;9.778;2023-05-31T15:14:16;0.10;;;0.10;;